Time;durP1;ratioP1;P1;durP2;ratioP2;P2;SDS_P1;SDS_P2;PMS_P1;PMS_P2;Temp;Humidity;BMP_temperature;BMP_pressure;BME280_temperature;BME280_humidity;BME280_pressure;Samples;Min_cycle;Max_cycle;Signal;HPM_P1;HPM_P2
2022/12/17 13:08:45;;;;;;;27.10;9.90;;;9.80;57.60;;;;;;6189329;28;20044;-78
2022/12/17 13:11:53;;;;;;;25.98;10.15;;;9.90;57.50;;;;;;6173257;28;20050;-79
2022/12/17 13:15:05;;;;;;;26.33;10.23;;;9.90;57.50;;;;;;6189152;28;20096;-78
2022/12/17 13:18:39;;;;;;;23.92;10.15;;;9.90;57.50;;;;;;6189687;28;20357;-78
2022/12/17 13:21:40;;;;;;;25.48;10.02;;;9.90;57.50;;;;;;6087856;29;20139;-78
2022/12/17 13:24:46;;;;;;;27.88;12.50;;;9.90;57.50;;;;;;6072681;29;20162;-79
2022/12/17 13:27:48;;;;;;;25.70;11.25;;;9.90;57.60;;;;;;6103211;29;20103;-79
2022/12/17 13:31:00;;;;;;;24.45;10.60;;;9.90;57.70;;;;;;6101055;29;20038;-77
2022/12/17 13:34:27;;;;;;;27.50;9.85;;;9.90;57.70;;;;;;6097082;29;20040;-78
2022/12/17 13:37:34;;;;;;;21.48;9.18;;;9.90;57.60;;;;;;6099195;29;20366;-78
2022/12/17 13:41:17;;;;;;;20.30;9.00;;;9.90;57.60;;;;;;6080881;29;20115;-79
2022/12/17 13:44:24;;;;;;;24.77;10.95;;;9.80;57.60;;;;;;6144646;28;20117;-79
2022/12/17 13:47:29;;;;;;;21.88;10.27;;;9.80;57.60;;;;;;6144351;28;20035;-79
2022/12/17 13:50:30;;;;;;;23.38;8.80;;;9.80;57.70;;;;;;6122485;28;20038;-78
2022/12/17 13:53:33;;;;;;;22.77;10.55;;;9.70;57.60;;;;;;6106691;28;20043;-79
2022/12/17 13:56:36;;;;;;;24.60;10.95;;;9.70;57.60;;;;;;6145710;28;20064;-77
2022/12/17 13:59:37;;;;;;;21.50;8.80;;;9.70;57.50;;;;;;6255544;28;20060;-78
2022/12/17 14:02:38;;;;;;;19.80;8.95;;;9.60;57.30;;;;;;6258091;28;20037;-78
2022/12/17 14:05:43;;;;;;;25.20;9.75;;;9.60;57.20;;;;;;6242282;28;20045;-80
2022/12/17 14:08:46;;;;;;;29.02;10.20;;;9.50;57.30;;;;;;6199808;28;20443;-77
2022/12/17 14:15:24;;;;;;;36.35;13.75;;;9.50;57.30;;;;;;6247906;28;20459;-77
2022/12/17 14:18:25;;;;;;;21.98;9.32;;;9.50;57.20;;;;;;6252060;28;20067;-78
2022/12/17 14:21:27;;;;;;;21.25;9.55;;;9.40;57.00;;;;;;6258947;28;20049;-79
2022/12/17 14:24:28;;;;;;;21.77;9.35;;;9.40;56.70;;;;;;6242750;28;20064;-78
2022/12/17 14:27:35;;;;;;;26.33;9.98;;;9.30;56.90;;;;;;6258690;28;20030;-78
2022/12/17 14:30:39;;;;;;;24.73;10.07;;;9.30;57.10;;;;;;6254654;28;20036;-78
2022/12/17 14:33:43;;;;;;;22.75;10.73;;;9.40;57.10;;;;;;6241684;28;20045;-78
2022/12/17 14:36:45;;;;;;;30.23;11.15;;;9.40;57.20;;;;;;6258779;28;20040;-78
2022/12/17 14:39:47;;;;;;;31.42;13.38;;;9.50;57.10;;;;;;6243396;28;20483;-78
2022/12/17 14:42:49;;;;;;;28.13;11.18;;;9.50;56.80;;;;;;6258852;28;20053;-78
2022/12/17 14:49:20;;;;;;;22.60;9.13;;;9.40;56.70;;;;;;6241362;28;20049;-79
2022/12/17 14:52:48;;;;;;;21.30;8.68;;;9.30;56.70;;;;;;6257876;28;20052;-78
2022/12/17 14:55:57;;;;;;;18.58;8.57;;;9.30;56.70;;;;;;6164175;28;20460;-80
2022/12/17 14:58:58;;;;;;;21.40;8.75;;;9.30;56.90;;;;;;6174474;28;20074;-80
2022/12/17 15:02:17;;;;;;;21.33;8.27;;;9.30;56.90;;;;;;6187478;28;20041;-80
2022/12/17 15:05:18;;;;;;;27.48;10.07;;;9.30;56.90;;;;;;6164352;28;20049;-79
2022/12/17 15:08:20;;;;;;;20.65;8.50;;;9.30;56.90;;;;;;6164358;28;20691;-79
2022/12/17 15:11:23;;;;;;;21.73;7.88;;;9.30;56.80;;;;;;6166337;28;20030;-79
2022/12/17 15:14:23;;;;;;;19.05;8.45;;;9.30;56.70;;;;;;6183574;28;20368;-78
2022/12/17 15:17:26;;;;;;;25.02;9.75;;;9.20;56.60;;;;;;6170806;28;20441;-78
2022/12/17 15:20:27;;;;;;;18.02;8.73;;;9.10;56.40;;;;;;6183217;28;20599;-78
2022/12/17 15:23:30;;;;;;;23.77;10.07;;;9.10;56.60;;;;;;6175390;28;20038;-78
2022/12/17 15:26:30;;;;;;;17.40;8.13;;;9.00;56.50;;;;;;6174186;28;20038;-79
2022/12/17 15:29:33;;;;;;;19.05;9.20;;;9.00;56.70;;;;;;6166319;28;20472;-78
2022/12/17 15:32:34;;;;;;;26.90;8.80;;;9.00;56.80;;;;;;6197695;28;20533;-78
2022/12/17 15:35:36;;;;;;;24.00;8.63;;;9.00;56.90;;;;;;6200469;28;20102;-78
2022/12/17 15:38:37;;;;;;;24.45;9.30;;;9.00;56.80;;;;;;6201560;28;20060;-79
2022/12/17 15:44:59;;;;;;;24.08;9.88;;;8.90;56.70;;;;;;6236208;28;20041;-79
2022/12/17 15:47:59;;;;;;;19.58;9.07;;;8.80;56.70;;;;;;6241461;28;20041;-78
2022/12/17 15:51:00;;;;;;;37.58;14.73;;;8.80;57.00;;;;;;6253842;28;20135;-79
2022/12/17 15:54:01;;;;;;;46.00;16.70;;;8.70;57.20;;;;;;6223359;28;20339;-78
2022/12/17 15:57:03;;;;;;;25.63;9.82;;;8.70;57.30;;;;;;6239784;28;20188;-79
2022/12/17 16:00:04;;;;;;;30.73;9.90;;;8.70;57.40;;;;;;6238522;28;20026;-78
2022/12/17 16:03:06;;;;;;;23.75;9.90;;;8.60;57.50;;;;;;6240855;28;20077;-77
2022/12/17 16:06:07;;;;;;;25.75;9.35;;;8.60;57.60;;;;;;6241714;28;20041;-79
2022/12/17 16:09:07;;;;;;;24.58;8.35;;;8.60;57.60;;;;;;6242761;28;20118;-78
2022/12/17 16:12:08;;;;;;;25.70;8.95;;;8.60;57.70;;;;;;6241527;28;20041;-79
2022/12/17 16:15:11;;;;;;;21.88;9.43;;;8.50;57.80;;;;;;6240514;28;20405;-79
2022/12/17 16:18:11;;;;;;;27.85;10.98;;;8.50;57.90;;;;;;6241126;28;20393;-78
2022/12/17 16:21:12;;;;;;;21.95;8.43;;;8.40;57.90;;;;;;6240724;28;20056;-79
2022/12/17 16:24:13;;;;;;;35.40;13.73;;;8.40;58.00;;;;;;6255828;28;20144;-79
2022/12/17 16:27:16;;;;;;;23.38;9.95;;;8.40;58.10;;;;;;6238492;28;20643;-79
2022/12/17 16:30:17;;;;;;;23.83;9.35;;;8.40;58.30;;;;;;6253869;28;20049;-79
2022/12/17 16:33:19;;;;;;;25.55;11.30;;;8.30;58.30;;;;;;6238718;28;20095;-78
2022/12/17 16:36:20;;;;;;;40.10;16.08;;;8.30;58.40;;;;;;6239113;28;20061;-78
2022/12/17 16:39:22;;;;;;;32.55;12.32;;;8.20;58.60;;;;;;6224681;28;20127;-79
2022/12/17 16:42:23;;;;;;;33.58;13.50;;;8.20;58.70;;;;;;6245032;28;20406;-79
2022/12/17 16:45:24;;;;;;;24.58;9.40;;;8.20;58.80;;;;;;6242997;28;20147;-78
2022/12/17 16:48:25;;;;;;;21.02;8.65;;;8.20;58.80;;;;;;6244559;28;20129;-79
2022/12/17 16:51:27;;;;;;;23.45;10.43;;;8.10;58.70;;;;;;6256388;28;20037;-80
2022/12/17 16:54:31;;;;;;;19.73;9.50;;;8.10;58.80;;;;;;6240707;28;20052;-79
2022/12/17 16:57:32;;;;;;;27.77;10.05;;;8.10;58.90;;;;;;6238866;28;20210;-80
2022/12/17 17:00:34;;;;;;;20.25;8.93;;;8.10;58.90;;;;;;6204265;28;20050;-79
2022/12/17 17:03:40;;;;;;;26.50;10.90;;;8.10;59.10;;;;;;6241318;28;20060;-79
2022/12/17 17:06:50;;;;;;;27.38;11.10;;;8.00;59.00;;;;;;6245346;28;20180;-78
2022/12/17 17:09:53;;;;;;;42.08;14.27;;;8.00;59.00;;;;;;6260364;28;20382;-78
2022/12/17 17:12:54;;;;;;;27.02;12.15;;;8.00;59.10;;;;;;6262319;28;20030;-80
2022/12/17 17:15:55;;;;;;;26.55;10.73;;;7.90;59.10;;;;;;6243771;28;20148;-78
2022/12/17 17:18:56;;;;;;;25.70;8.98;;;7.90;59.20;;;;;;6236076;28;20034;-78
2022/12/17 17:21:57;;;;;;;20.42;9.23;;;7.90;59.20;;;;;;6238049;28;20427;-78
2022/12/17 17:24:58;;;;;;;33.75;12.95;;;7.90;59.10;;;;;;6258532;28;20042;-78
2022/12/17 17:27:59;;;;;;;49.72;20.15;;;7.90;59.20;;;;;;6258942;28;20049;-79
2022/12/17 17:31:02;;;;;;;53.30;18.77;;;7.90;59.20;;;;;;6241935;28;20025;-79
2022/12/17 17:34:09;;;;;;;23.85;11.32;;;7.90;59.20;;;;;;6242695;28;20033;-79
2022/12/17 17:37:09;;;;;;;26.73;10.10;;;7.90;59.20;;;;;;6241643;28;20046;-78
2022/12/17 17:40:11;;;;;;;20.27;9.85;;;7.90;59.30;;;;;;6244469;28;20116;-78
2022/12/17 17:43:12;;;;;;;24.27;9.48;;;7.80;59.30;;;;;;6256868;28;20048;-78
2022/12/17 17:46:16;;;;;;;45.60;18.23;;;7.80;59.20;;;;;;6257490;28;20049;-78
2022/12/17 17:49:17;;;;;;;25.42;9.45;;;7.80;59.30;;;;;;6240903;28;20037;-79
2022/12/17 17:52:18;;;;;;;49.50;17.92;;;7.80;59.40;;;;;;6246282;28;20116;-79
2022/12/17 17:55:19;;;;;;;36.13;14.38;;;7.80;59.40;;;;;;6246220;28;20041;-79
2022/12/17 17:58:20;;;;;;;44.90;14.25;;;7.70;59.50;;;;;;6259881;28;20052;-78
2022/12/17 18:01:33;;;;;;;34.78;12.82;;;7.70;59.60;;;;;;6258883;28;20045;-78
2022/12/17 18:04:34;;;;;;;25.85;10.85;;;7.70;59.60;;;;;;6255921;28;20033;-77
2022/12/17 18:07:35;;;;;;;28.02;11.35;;;7.70;59.60;;;;;;6224749;28;20459;-79
2022/12/17 18:10:36;;;;;;;27.35;9.30;;;7.70;59.70;;;;;;6244543;28;20101;-79
2022/12/17 18:13:56;;;;;;;32.38;11.80;;;7.70;59.70;;;;;;6243907;28;20364;-78
2022/12/17 18:16:57;;;;;;;29.75;13.82;;;7.70;59.70;;;;;;6224655;28;20123;-79
2022/12/17 18:19:57;;;;;;;34.95;14.98;;;7.60;59.80;;;;;;6240331;28;20038;-77
2022/12/17 18:22:58;;;;;;;29.63;12.05;;;7.60;59.90;;;;;;6238763;28;20060;-79
2022/12/17 18:26:12;;;;;;;30.88;12.02;;;7.50;60.00;;;;;;6241221;28;20516;-79
2022/12/17 18:29:17;;;;;;;30.30;11.75;;;7.50;60.20;;;;;;6256383;28;20045;-77
2022/12/17 18:32:18;;;;;;;27.60;11.05;;;7.60;60.30;;;;;;6252942;28;20115;-78
2022/12/17 18:35:19;;;;;;;23.40;10.35;;;7.50;60.30;;;;;;6242969;28;20114;-78
2022/12/17 18:38:21;;;;;;;32.08;10.55;;;7.60;60.40;;;;;;6240318;28;20099;-78
2022/12/17 18:44:41;;;;;;;31.83;14.32;;;7.60;60.50;;;;;;6242584;28;20120;-78
2022/12/17 18:47:43;;;;;;;35.25;11.95;;;7.70;60.70;;;;;;6242933;28;20026;-78
2022/12/17 18:50:45;;;;;;;26.75;10.88;;;7.70;60.70;;;;;;6248609;28;20037;-77
2022/12/17 18:53:46;;;;;;;30.77;13.38;;;7.70;60.70;;;;;;6257626;28;20454;-78
2022/12/17 18:56:47;;;;;;;39.88;16.88;;;7.60;60.70;;;;;;6226458;28;20084;-78
2022/12/17 18:59:49;;;;;;;43.17;14.88;;;7.60;60.80;;;;;;6244578;28;20037;-78
2022/12/17 19:02:50;;;;;;;38.55;14.98;;;7.60;61.00;;;;;;6253333;28;20083;-78
2022/12/17 19:05:51;;;;;;;50.08;17.65;;;7.60;61.00;;;;;;6241540;28;20055;-78
2022/12/17 19:08:54;;;;;;;43.80;16.75;;;7.60;61.00;;;;;;6258654;28;20115;-78
2022/12/17 19:11:56;;;;;;;29.92;12.55;;;7.60;61.10;;;;;;6255674;28;20032;-78
2022/12/17 19:14:57;;;;;;;31.30;13.30;;;7.50;61.10;;;;;;6252376;28;20041;-78
2022/12/17 19:17:58;;;;;;;30.77;13.27;;;7.50;61.20;;;;;;6238904;28;20367;-78
2022/12/17 19:21:00;;;;;;;34.70;14.02;;;7.50;61.30;;;;;;6240023;28;20025;-79
2022/12/17 19:24:06;;;;;;;32.97;13.18;;;7.50;61.50;;;;;;6256072;28;20092;-77
2022/12/17 19:27:07;;;;;;;41.35;12.95;;;7.50;61.60;;;;;;6256873;28;20037;-76
2022/12/17 19:30:09;;;;;;;44.88;14.05;;;7.40;61.70;;;;;;6258415;28;20175;-78
2022/12/17 19:33:10;;;;;;;29.77;11.82;;;7.40;61.70;;;;;;6254532;28;20033;-77
2022/12/17 19:36:13;;;;;;;33.08;13.38;;;7.40;61.90;;;;;;6242004;28;20037;-78
2022/12/17 19:39:18;;;;;;;34.22;15.10;;;7.30;61.90;;;;;;6241999;28;20038;-78
2022/12/17 19:42:26;;;;;;;29.42;12.63;;;7.30;62.00;;;;;;6244335;28;20033;-77
2022/12/17 19:45:27;;;;;;;41.50;14.98;;;7.30;62.10;;;;;;6242199;28;20041;-78
2022/12/17 19:48:30;;;;;;;32.85;13.95;;;7.30;62.20;;;;;;6243545;28;20041;-78
2022/12/17 19:51:31;;;;;;;50.67;17.02;;;7.30;62.10;;;;;;6240304;28;20122;-78
2022/12/17 19:54:32;;;;;;;38.15;14.65;;;7.30;62.30;;;;;;6258803;28;20367;-78
2022/12/17 19:57:35;;;;;;;22.23;10.02;;;7.30;62.30;;;;;;6259846;28;20534;-80
2022/12/17 20:00:36;;;;;;;34.67;12.77;;;7.30;62.30;;;;;;6259579;28;20044;-80
2022/12/17 20:03:38;;;;;;;38.75;16.50;;;7.30;62.30;;;;;;6253844;28;20100;-79
2022/12/17 20:06:39;;;;;;;34.80;13.50;;;7.30;62.40;;;;;;6242038;28;20434;-77
2022/12/17 20:09:42;;;;;;;31.35;11.82;;;7.20;62.40;;;;;;6258424;28;20513;-78
2022/12/17 20:12:43;;;;;;;50.55;16.20;;;7.20;62.60;;;;;;6262701;28;20045;-78
2022/12/17 20:15:44;;;;;;;57.40;22.17;;;7.20;62.70;;;;;;6245797;28;20056;-78
2022/12/17 20:18:45;;;;;;;42.85;18.88;;;7.20;62.90;;;;;;6228061;28;20034;-77
2022/12/17 20:21:47;;;;;;;26.00;11.48;;;7.20;63.20;;;;;;6222395;28;20046;-79
2022/12/17 20:24:48;;;;;;;23.63;10.88;;;7.20;63.30;;;;;;6223235;28;20046;-78
2022/12/17 20:27:49;;;;;;;32.10;13.82;;;7.10;63.30;;;;;;6240550;28;20391;-78
2022/12/17 20:30:53;;;;;;;38.95;16.05;;;7.10;63.50;;;;;;6222763;28;20044;-79
2022/12/17 20:33:54;;;;;;;26.42;13.15;;;7.10;63.50;;;;;;6227800;28;20085;-80
2022/12/17 20:36:55;;;;;;;40.50;17.10;;;7.10;63.60;;;;;;6249423;28;20455;-79
2022/12/17 20:39:57;;;;;;;33.97;14.25;;;7.10;63.70;;;;;;6264364;28;20117;-78
2022/12/17 20:42:58;;;;;;;39.30;17.30;;;7.10;63.80;;;;;;6264738;28;20140;-79
2022/12/17 20:46:00;;;;;;;40.22;16.45;;;7.10;63.80;;;;;;6262937;28;20053;-79
2022/12/17 20:49:02;;;;;;;74.50;25.83;;;7.20;63.70;;;;;;6237922;28;20389;-79
2022/12/17 20:52:03;;;;;;;35.25;15.25;;;7.20;63.70;;;;;;6206247;28;20169;-78
2022/12/17 20:55:04;;;;;;;30.30;13.48;;;7.20;63.60;;;;;;6221573;28;20459;-77
2022/12/17 20:58:05;;;;;;;36.80;16.40;;;7.20;63.50;;;;;;6207147;28;20042;-78
2022/12/17 21:01:13;;;;;;;35.20;14.75;;;7.30;63.60;;;;;;6246893;28;20112;-79
2022/12/17 21:04:14;;;;;;;34.55;13.63;;;7.30;63.60;;;;;;6247122;28;20474;-79
2022/12/17 21:07:15;;;;;;;32.03;13.98;;;7.30;63.50;;;;;;6262090;28;20041;-78
2022/12/17 21:10:16;;;;;;;35.67;13.45;;;7.30;63.50;;;;;;6245163;28;20049;-78
2022/12/17 21:13:29;;;;;;;35.50;12.93;;;7.30;63.60;;;;;;6242894;28;20034;-78
2022/12/17 21:16:30;;;;;;;30.63;13.05;;;7.20;63.50;;;;;;6260165;28;20148;-80
2022/12/17 21:19:31;;;;;;;29.48;12.68;;;7.10;63.60;;;;;;6245732;28;20034;-79
2022/12/17 21:22:32;;;;;;;26.38;12.18;;;7.10;63.70;;;;;;6245117;28;20045;-79
2022/12/17 21:25:33;;;;;;;33.97;14.20;;;7.00;63.80;;;;;;6247690;28;20068;-78
2022/12/17 21:28:35;;;;;;;28.92;12.63;;;7.00;63.90;;;;;;6247880;28;20052;-77
2022/12/17 21:31:39;;;;;;;28.75;12.85;;;6.90;63.90;;;;;;6247003;28;20047;-78
2022/12/17 21:34:40;;;;;;;35.55;15.55;;;6.90;63.90;;;;;;6246967;28;20041;-78
2022/12/17 21:37:41;;;;;;;31.02;13.90;;;6.90;64.00;;;;;;6230227;28;20060;-78
2022/12/17 21:40:42;;;;;;;20.70;9.35;;;6.80;64.10;;;;;;6247581;28;20462;-78
2022/12/17 21:43:43;;;;;;;23.35;10.07;;;6.80;64.10;;;;;;6246635;28;20096;-78
2022/12/17 21:46:45;;;;;;;28.60;11.55;;;6.70;64.00;;;;;;6261738;28;20489;-79
2022/12/17 21:49:46;;;;;;;29.77;11.70;;;6.70;64.10;;;;;;6245958;28;20044;-78
2022/12/17 21:52:47;;;;;;;28.02;10.50;;;6.70;64.20;;;;;;6260552;28;20057;-78
2022/12/17 21:55:49;;;;;;;28.23;10.80;;;6.70;64.20;;;;;;6260853;28;20112;-78
2022/12/17 21:58:53;;;;;;;30.50;10.98;;;6.60;64.10;;;;;;6260804;28;20547;-78
2022/12/17 22:01:55;;;;;;;29.10;10.05;;;6.60;64.20;;;;;;6260395;28;20041;-78
2022/12/17 22:04:56;;;;;;;27.65;11.07;;;6.60;64.20;;;;;;6245550;28;20048;-78
2022/12/17 22:07:58;;;;;;;24.80;9.82;;;6.50;64.20;;;;;;6246118;28;20026;-78
2022/12/17 22:10:58;;;;;;;21.83;10.85;;;6.40;64.30;;;;;;6245306;28;20060;-78
2022/12/17 22:14:05;;;;;;;23.98;10.57;;;6.40;64.50;;;;;;6245385;28;20113;-79
2022/12/17 22:17:06;;;;;;;25.58;9.77;;;6.40;64.70;;;;;;6246018;28;20041;-78
2022/12/17 22:20:09;;;;;;;21.80;9.18;;;6.30;64.70;;;;;;6246133;28;20022;-78
2022/12/17 22:23:10;;;;;;;24.25;11.23;;;6.20;64.90;;;;;;6246855;28;20030;-79
2022/12/17 22:26:11;;;;;;;19.80;9.13;;;6.20;65.00;;;;;;6246473;28;20049;-78
2022/12/17 22:32:58;;;;;;;25.67;10.70;;;6.20;65.10;;;;;;6246764;28;20382;-78
2022/12/17 22:35:58;;;;;;;23.67;10.02;;;6.10;65.40;;;;;;6244078;28;20042;-79
2022/12/17 22:39:04;;;;;;;18.92;9.30;;;6.10;65.50;;;;;;6249773;28;20102;-77
2022/12/17 22:45:24;;;;;;;26.17;9.35;;;6.10;65.70;;;;;;6215893;28;20062;-78
2022/12/17 22:48:26;;;;;;;20.52;8.57;;;6.20;65.80;;;;;;6243014;28;20346;-78
2022/12/17 22:51:27;;;;;;;20.00;8.90;;;6.10;65.80;;;;;;6243549;28;20039;-77
2022/12/17 22:54:28;;;;;;;28.77;11.07;;;6.10;65.90;;;;;;6245123;28;20037;-78
2022/12/17 22:57:29;;;;;;;20.70;10.30;;;6.10;65.70;;;;;;6261832;28;20138;-79
2022/12/17 23:00:34;;;;;;;26.33;9.43;;;6.10;65.80;;;;;;6220679;28;20034;-77
2022/12/17 23:03:36;;;;;;;24.77;10.40;;;6.10;65.80;;;;;;6249955;28;20038;-79
2022/12/17 23:06:37;;;;;;;22.42;8.77;;;6.20;65.80;;;;;;6221851;28;20038;-78
2022/12/17 23:09:38;;;;;;;28.45;10.18;;;6.20;65.70;;;;;;6221274;28;20136;-79
2022/12/17 23:12:52;;;;;;;31.38;10.75;;;6.20;65.70;;;;;;6221237;28;20038;-78
2022/12/17 23:15:54;;;;;;;24.55;9.38;;;6.20;65.60;;;;;;6237728;28;20128;-78
2022/12/17 23:18:59;;;;;;;22.20;9.05;;;6.30;65.70;;;;;;6220490;28;20148;-77
2022/12/17 23:21:59;;;;;;;18.98;9.00;;;6.30;65.70;;;;;;6220721;28;20049;-78
2022/12/17 23:25:01;;;;;;;26.02;11.95;;;6.20;65.70;;;;;;6220311;28;20049;-78
2022/12/17 23:28:01;;;;;;;29.05;10.80;;;6.20;65.60;;;;;;6245434;28;20044;-77
2022/12/17 23:31:14;;;;;;;26.70;12.15;;;6.20;65.70;;;;;;6243561;28;20034;-77
2022/12/17 23:34:15;;;;;;;27.15;12.57;;;6.20;65.70;;;;;;6242960;28;20042;-78
2022/12/17 23:37:16;;;;;;;28.42;10.35;;;6.10;65.80;;;;;;6242412;28;20587;-78
2022/12/17 23:40:17;;;;;;;19.17;10.70;;;6.10;65.70;;;;;;6241579;28;20037;-78
2022/12/17 23:43:18;;;;;;;23.73;9.75;;;6.10;65.80;;;;;;6241001;28;20120;-78
2022/12/17 23:46:19;;;;;;;22.23;9.25;;;6.10;65.60;;;;;;6256425;28;20068;-78
2022/12/17 23:49:20;;;;;;;20.02;8.38;;;6.10;65.60;;;;;;6253551;28;20037;-77
2022/12/17 23:52:21;;;;;;;19.50;9.02;;;6.10;65.60;;;;;;6238242;28;20367;-78
2022/12/17 23:55:22;;;;;;;21.13;9.13;;;6.10;65.40;;;;;;6249433;28;20120;-77
2022/12/17 23:58:23;;;;;;;25.73;10.13;;;6.20;65.30;;;;;;6264546;28;20037;-78
